Time;durP1;ratioP1;P1;durP2;ratioP2;P2;SDS_P1;SDS_P2;PMS_P1;PMS_P2;Temp;Humidity;BMP_temperature;BMP_pressure;BME280_temperature;BME280_humidity;BME280_pressure;Samples;Min_cycle;Max_cycle;Signal;HPM_P1;HPM_P2
2022/03/27 00:00:30;;;;;;;14.85;8.88;;;;;;;12.13;53.81;102773.28;4832140;29;100941;-71
2022/03/27 00:02:56;;;;;;;15.32;8.63;;;;;;;12.24;53.75;102776.69;4828685;29;97140;-72
2022/03/27 00:05:24;;;;;;;14.43;8.55;;;;;;;12.08;54.14;102775.94;4833090;29;96875;-71
2022/03/27 00:07:51;;;;;;;12.95;8.52;;;;;;;11.90;54.80;102770.84;4832372;29;101306;-71
2022/03/27 00:10:17;;;;;;;16.85;9.45;;;;;;;11.72;55.17;102777.13;4829364;29;100385;-72
2022/03/27 00:12:44;;;;;;;19.98;9.95;;;;;;;11.91;54.94;102780.53;4832366;29;99156;-71
2022/03/27 00:15:11;;;;;;;10.85;8.13;;;;;;;11.72;55.21;102771.84;4828519;29;96884;-71
2022/03/27 00:17:39;;;;;;;18.75;8.93;;;;;;;11.53;55.43;102787.00;4825774;29;98436;-71
2022/03/27 00:20:08;;;;;;;18.45;9.75;;;;;;;11.57;55.27;102778.13;4827620;29;99071;-72
2022/03/27 00:22:36;;;;;;;15.07;9.48;;;;;;;11.54;55.27;102777.28;4832582;29;97052;-71
2022/03/27 00:25:04;;;;;;;16.30;9.48;;;;;;;11.56;55.58;102786.97;4832526;29;97219;-72
2022/03/27 00:27:31;;;;;;;51.30;11.80;;;;;;;11.53;55.63;102788.75;4829310;29;100989;-69
2022/03/27 00:29:58;;;;;;;30.10;10.32;;;;;;;11.77;54.54;102788.59;4828996;29;100530;-70
2022/03/27 00:32:25;;;;;;;21.50;10.15;;;;;;;11.79;54.45;102783.28;4831099;29;97176;-70
2022/03/27 00:34:53;;;;;;;24.48;10.05;;;;;;;11.74;54.45;102787.75;4829173;29;96998;-70
2022/03/27 00:37:20;;;;;;;24.60;9.20;;;;;;;11.80;54.23;102782.41;4829140;29;99954;-70
2022/03/27 00:39:47;;;;;;;17.52;9.93;;;;;;;11.64;54.94;102784.25;4829436;29;98931;-70
2022/03/27 00:42:14;;;;;;;19.08;9.73;;;;;;;11.49;55.79;102784.34;4824366;29;98372;-72
2022/03/27 00:44:40;;;;;;;16.75;9.60;;;;;;;11.46;55.32;102780.00;4830626;29;98704;-70
2022/03/27 00:47:07;;;;;;;19.23;9.80;;;;;;;11.48;55.08;102782.63;4824371;29;102127;-71
2022/03/27 00:49:34;;;;;;;15.55;9.88;;;;;;;11.59;54.76;102786.94;4830337;29;99018;-71
2022/03/27 00:52:01;;;;;;;19.42;9.82;;;;;;;11.48;55.13;102782.63;4833450;29;97288;-71
2022/03/27 00:54:27;;;;;;;23.75;10.18;;;;;;;11.37;55.75;102774.75;4833202;29;96927;-71
2022/03/27 00:56:55;;;;;;;19.25;9.40;;;;;;;11.46;55.53;102772.03;4831598;29;97968;-71
2022/03/27 00:59:22;;;;;;;16.40;9.75;;;;;;;11.52;55.52;102777.28;4830141;29;98892;-72
2022/03/27 01:01:48;;;;;;;17.30;10.10;;;;;;;11.53;55.49;102779.06;4832953;29;97441;-70
2022/03/27 01:04:15;;;;;;;15.73;9.35;;;;;;;11.40;55.51;102769.44;4834938;29;97183;-71
2022/03/27 01:06:43;;;;;;;21.80;10.32;;;;;;;11.06;56.65;102765.25;4828713;29;99123;-70
2022/03/27 01:12:07;;;;;;;17.60;10.32;;;;;;;11.25;56.03;102764.25;4830055;29;96801;-70
2022/03/27 01:14:34;;;;;;;20.60;10.20;;;;;;;11.22;56.13;102761.63;4833498;29;96876;-71
2022/03/27 01:17:05;;;;;;;16.08;10.13;;;;;;;11.16;56.22;102769.56;4832405;29;98979;-71
2022/03/27 01:19:31;;;;;;;19.45;10.45;;;;;;;10.97;56.87;102773.22;4828178;29;101746;-71
2022/03/27 01:22:00;;;;;;;23.45;11.32;;;;;;;11.01;56.82;102767.91;4833453;29;97595;-71
2022/03/27 01:24:27;;;;;;;17.83;10.75;;;;;;;11.09;56.62;102770.53;4830637;29;97191;-71
2022/03/27 01:26:53;;;;;;;21.08;10.93;;;;;;;11.12;56.26;102770.50;4832608;29;98967;-70
2022/03/27 01:29:20;;;;;;;20.15;10.50;;;;;;;11.00;56.14;102774.09;4829696;29;98991;-71
2022/03/27 01:31:47;;;;;;;15.93;10.73;;;;;;;11.16;56.27;102769.56;4830502;29;96997;-70
2022/03/27 01:34:14;;;;;;;16.85;10.75;;;;;;;11.22;56.26;102769.56;4830924;29;96762;-70
2022/03/27 01:36:41;;;;;;;17.88;10.98;;;;;;;11.04;56.57;102774.94;4831513;29;101575;-71
2022/03/27 01:39:12;;;;;;;15.27;10.25;;;;;;;10.91;57.03;102778.53;4828337;29;99251;-71
2022/03/27 01:41:40;;;;;;;16.23;10.35;;;;;;;11.09;56.50;102776.66;4831029;29;98753;-69
2022/03/27 01:44:08;;;;;;;17.08;11.77;;;;;;;10.96;56.89;102771.47;4827792;29;96800;-70
2022/03/27 01:46:37;;;;;;;19.90;10.77;;;;;;;10.93;56.79;102780.28;4833161;29;101763;-70
2022/03/27 01:49:05;;;;;;;16.90;10.73;;;;;;;10.97;56.95;102789.09;4828893;29;98920;-69
2022/03/27 01:51:33;;;;;;;17.10;11.07;;;;;;;11.02;56.44;102788.19;4834665;29;96910;-71
2022/03/27 01:54:01;;;;;;;18.00;11.32;;;;;;;11.03;56.54;102781.13;4831130;29;98728;-72
2022/03/27 01:56:28;;;;;;;21.48;11.82;;;;;;;10.95;56.94;102781.19;4823159;29;99481;-71
2022/03/27 01:58:55;;;;;;;16.90;10.85;;;;;;;10.85;56.51;102789.13;4829537;29;99355;-70
2022/03/27 02:01:21;;;;;;;16.90;11.27;;;;;;;10.74;57.10;102791.84;4832505;29;97105;-71
2022/03/27 02:03:48;;;;;;;16.00;11.43;;;;;;;10.74;57.05;102791.84;4832194;29;97561;-71
2022/03/27 02:06:18;;;;;;;19.13;10.98;;;;;;;11.05;56.47;102784.63;4833428;29;97925;-70
2022/03/27 02:08:45;;;;;;;21.63;12.15;;;;;;;10.93;56.50;102790.00;4830644;29;98799;-71
2022/03/27 02:11:13;;;;;;;20.63;12.13;;;;;;;10.88;57.00;102794.44;4832063;29;96813;-71
2022/03/27 02:13:41;;;;;;;16.85;11.88;;;;;;;10.81;57.17;102798.00;4831966;29;96972;-70
2022/03/27 02:16:07;;;;;;;19.02;12.80;;;;;;;11.12;56.18;102786.38;4833802;29;101916;-70
2022/03/27 02:18:34;;;;;;;23.52;12.38;;;;;;;11.25;55.71;102789.81;4834111;29;99168;-70
2022/03/27 02:21:01;;;;;;;16.27;11.48;;;;;;;11.02;56.09;102803.19;4834813;29;96823;-71
2022/03/27 02:23:28;;;;;;;17.27;11.40;;;;;;;10.86;56.76;102801.50;4834927;29;97123;-71
2022/03/27 02:25:56;;;;;;;21.92;12.38;;;;;;;11.04;56.49;102807.56;4833763;29;99046;-70
2022/03/27 02:28:23;;;;;;;19.00;11.27;;;;;;;11.51;54.74;102803.78;4835586;29;98795;-70
2022/03/27 02:30:51;;;;;;;19.27;11.88;;;;;;;11.25;55.03;102811.88;4836597;29;96957;-70
2022/03/27 02:33:18;;;;;;;19.08;11.45;;;;;;;10.87;56.09;102808.53;4835768;29;97101;-70
2022/03/27 02:36:01;;;;;;;21.02;12.73;;;;;;;11.06;55.96;102805.81;4835077;29;99368;-70
2022/03/27 02:38:28;;;;;;;18.67;11.38;;;;;;;10.98;55.96;102804.94;4835187;29;99128;-70
2022/03/27 02:40:54;;;;;;;18.67;12.23;;;;;;;11.14;55.62;102811.06;4833701;29;98709;-70
2022/03/27 02:43:20;;;;;;;20.23;11.88;;;;;;;10.98;56.09;102806.72;4835071;29;97656;-71
2022/03/27 02:45:49;;;;;;;21.60;12.45;;;;;;;10.90;56.27;102811.16;4833814;29;99226;-70
2022/03/27 02:48:17;;;;;;;23.48;12.48;;;;;;;10.89;56.23;102809.44;4834952;29;99226;-70
2022/03/27 02:50:44;;;;;;;21.88;12.52;;;;;;;11.27;55.30;102802.16;4835520;29;96767;-70
2022/03/27 02:53:11;;;;;;;20.77;13.30;;;;;;;11.55;54.64;102809.03;4834330;29;96900;-70
2022/03/27 02:55:38;;;;;;;19.73;12.07;;;;;;;11.63;54.24;102814.28;4831433;29;99137;-71
2022/03/27 02:58:04;;;;;;;19.40;11.55;;;;;;;11.35;54.68;102813.59;4834488;29;98834;-70
2022/03/27 03:00:31;;;;;;;22.23;13.07;;;;;;;11.13;55.18;102817.25;4833263;29;97078;-70
2022/03/27 03:02:57;;;;;;;19.63;12.75;;;;;;;11.05;55.38;102813.75;4834907;29;97064;-71
2022/03/27 03:05:25;;;;;;;20.02;13.07;;;;;;;11.19;55.20;102822.50;4831117;29;99073;-70
2022/03/27 03:07:52;;;;;;;19.83;12.95;;;;;;;10.81;56.17;102820.03;4831791;29;99100;-72
2022/03/27 03:10:19;;;;;;;19.27;13.00;;;;;;;10.96;55.84;102814.66;4832824;29;96853;-70
2022/03/27 03:12:46;;;;;;;23.63;13.15;;;;;;;11.24;55.23;102811.88;4830028;29;96833;-71
2022/03/27 03:15:13;;;;;;;20.75;12.70;;;;;;;11.16;55.04;102820.72;4835187;29;98989;-70
2022/03/27 03:17:39;;;;;;;21.83;13.18;;;;;;;10.94;56.07;102821.75;4835401;29;98927;-70
2022/03/27 03:20:07;;;;;;;20.77;12.88;;;;;;;11.00;55.67;102811.13;4832321;29;97902;-71
2022/03/27 03:22:37;;;;;;;20.80;13.65;;;;;;;10.84;55.98;102814.72;4834361;29;98565;-71
2022/03/27 03:25:05;;;;;;;23.00;13.68;;;;;;;11.02;55.70;102813.78;4833349;29;99562;-70
2022/03/27 03:27:31;;;;;;;22.95;14.10;;;;;;;11.11;55.11;102811.94;4834292;29;101186;-71
2022/03/27 03:29:58;;;;;;;22.90;13.35;;;;;;;11.02;55.61;102809.38;4833295;29;96979;-73
2022/03/27 03:32:24;;;;;;;26.90;16.80;;;;;;;11.21;55.06;102803.97;4835968;29;96928;-71
2022/03/27 03:34:51;;;;;;;20.05;13.77;;;;;;;11.26;54.42;102805.69;4833668;29;98859;-70
2022/03/27 03:37:17;;;;;;;20.15;13.25;;;;;;;10.86;55.31;102809.41;4832495;29;98329;-70
2022/03/27 03:39:45;;;;;;;22.33;14.07;;;;;;;10.91;55.50;102803.22;4833956;29;96843;-71
2022/03/27 03:42:12;;;;;;;22.33;13.73;;;;;;;10.99;54.88;102812.00;4833849;29;96861;-71
2022/03/27 03:44:38;;;;;;;20.50;14.23;;;;;;;11.24;54.44;102809.22;4834489;29;97909;-70
2022/03/27 03:47:05;;;;;;;22.83;13.65;;;;;;;10.58;56.04;102814.78;4830225;29;99022;-70
2022/03/27 03:49:31;;;;;;;26.48;13.88;;;;;;;10.71;56.00;102819.16;4834422;29;97792;-70
2022/03/27 03:51:58;;;;;;;22.83;14.20;;;;;;;10.51;56.84;102818.34;4833874;29;96768;-71
2022/03/27 03:54:24;;;;;;;22.88;14.50;;;;;;;10.12;57.52;102811.31;4834294;29;101668;-70
2022/03/27 03:56:52;;;;;;;25.00;15.10;;;;;;;10.25;57.37;102809.56;4834206;29;101639;-71
2022/03/27 03:59:19;;;;;;;24.90;14.20;;;;;;;10.56;56.74;102811.31;4832730;29;97029;-72
2022/03/27 04:01:45;;;;;;;25.70;14.63;;;;;;;10.41;56.89;102803.41;4834882;29;97138;-71
2022/03/27 04:04:12;;;;;;;25.80;13.93;;;;;;;10.42;57.18;102786.66;4833010;29;99362;-71
2022/03/27 04:06:38;;;;;;;23.73;14.85;;;;;;;10.15;57.79;102792.84;4833303;29;98841;-70
2022/03/27 04:09:05;;;;;;;25.35;14.73;;;;;;;10.26;57.43;102799.00;4833963;29;97053;-70
2022/03/27 04:11:31;;;;;;;23.70;14.20;;;;;;;10.07;58.02;102802.53;4832760;29;96917;-70
2022/03/27 04:13:59;;;;;;;23.73;14.50;;;;;;;10.13;57.64;102796.34;4833831;29;98825;-71
2022/03/27 04:16:26;;;;;;;27.05;14.50;;;;;;;10.12;57.40;102803.41;4834286;29;98868;-72
2022/03/27 04:18:52;;;;;;;24.25;14.38;;;;;;;9.98;57.88;102798.13;4829967;29;97680;-71
2022/03/27 04:21:19;;;;;;;27.48;13.75;;;;;;;10.07;57.58;102805.16;4834013;29;99459;-71
2022/03/27 04:23:45;;;;;;;25.50;13.77;;;;;;;10.02;57.50;102800.78;4831202;29;98798;-72
2022/03/27 04:26:12;;;;;;;26.42;14.85;;;;;;;9.98;57.58;102803.41;4832839;29;98859;-71
2022/03/27 04:28:38;;;;;;;25.90;15.82;;;;;;;9.75;58.21;102796.38;4830609;29;96952;-70
2022/03/27 04:31:06;;;;;;;23.25;14.15;;;;;;;9.90;57.87;102797.28;4831612;29;97261;-71
2022/03/27 04:33:33;;;;;;;22.73;14.18;;;;;;;9.46;58.75;102796.34;4826546;29;99087;-71
2022/03/27 04:35:59;;;;;;;28.60;13.75;;;;;;;9.84;58.06;102806.97;4831712;29;101805;-72
2022/03/27 04:38:25;;;;;;;23.20;13.30;;;;;;;10.09;56.62;102807.81;4834646;29;96837;-71
2022/03/27 04:40:52;;;;;;;24.48;14.70;;;;;;;10.35;55.86;102801.66;4832494;29;97370;-70
2022/03/27 04:43:18;;;;;;;27.80;14.73;;;;;;;10.10;56.49;102801.66;4831350;29;98958;-70
2022/03/27 04:46:07;;;;;;;21.45;13.52;;;;;;;10.07;56.65;102802.53;4835518;29;98801;-75
2022/03/27 04:48:35;;;;;;;24.48;14.27;;;;;;;10.30;56.55;102806.06;4833238;29;96760;-72
2022/03/27 04:51:07;;;;;;;25.48;14.25;;;;;;;10.50;55.29;102802.50;4833287;29;97535;-72
2022/03/27 04:53:33;;;;;;;23.00;14.63;;;;;;;10.05;56.36;102798.13;4830567;29;97802;-70
2022/03/27 04:55:59;;;;;;;21.27;13.93;;;;;;;9.95;57.06;102790.22;4833544;29;99947;-70
2022/03/27 04:58:26;;;;;;;22.35;14.75;;;;;;;10.12;57.03;102789.31;4831183;29;97659;-71
2022/03/27 05:00:52;;;;;;;24.52;14.73;;;;;;;9.85;57.75;102796.38;4834698;29;96878;-71
2022/03/27 05:03:18;;;;;;;23.50;14.00;;;;;;;9.66;58.35;102788.44;4828425;29;99308;-71
2022/03/27 05:05:46;;;;;;;24.45;14.85;;;;;;;9.85;57.65;102791.09;4833332;29;98978;-71
2022/03/27 05:08:12;;;;;;;23.98;14.70;;;;;;;10.12;56.76;102795.47;4831881;29;96842;-72
2022/03/27 05:10:39;;;;;;;25.02;13.85;;;;;;;10.04;57.22;102797.28;4834224;29;97022;-71
2022/03/27 05:13:07;;;;;;;20.92;13.55;;;;;;;10.55;55.95;102804.25;4830489;29;99157;-71
2022/03/27 05:15:33;;;;;;;22.98;13.48;;;;;;;10.70;55.22;102801.53;4828805;29;99165;-71
2022/03/27 05:18:00;;;;;;;26.52;14.70;;;;;;;10.99;54.70;102804.06;4832155;29;96846;-73
2022/03/27 05:20:28;;;;;;;21.88;14.27;;;;;;;11.04;54.08;102802.28;4833098;29;96882;-71
2022/03/27 05:22:56;;;;;;;22.95;14.85;;;;;;;10.95;54.53;102802.34;4830964;29;99928;-71
2022/03/27 05:25:23;;;;;;;25.50;14.52;;;;;;;11.10;54.11;102804.00;4831861;29;100806;-71
2022/03/27 05:27:52;;;;;;;26.63;13.27;;;;;;;11.37;53.57;102801.22;4831780;29;97071;-72
2022/03/27 05:30:21;;;;;;;23.42;13.50;;;;;;;11.31;53.36;102805.66;4834111;29;97002;-70
2022/03/27 05:32:48;;;;;;;19.67;13.88;;;;;;;11.36;53.33;102804.75;4830602;29;99435;-70
2022/03/27 05:35:22;;;;;;;25.50;15.27;;;;;;;11.08;54.06;102813.75;4832541;29;97597;-71
2022/03/27 05:37:50;;;;;;;23.58;14.30;;;;;;;10.77;55.19;102813.84;4831732;29;96854;-71
2022/03/27 05:40:19;;;;;;;21.67;14.18;;;;;;;10.64;55.44;102812.13;4833275;29;97177;-70
2022/03/27 05:42:46;;;;;;;24.35;13.95;;;;;;;11.33;54.00;102822.41;4831591;29;99156;-70
2022/03/27 05:45:13;;;;;;;23.55;14.10;;;;;;;11.47;53.45;102818.81;4830403;29;98867;-70
2022/03/27 05:47:41;;;;;;;23.33;14.48;;;;;;;11.45;53.70;102819.69;4831772;29;97483;-71
2022/03/27 05:50:09;;;;;;;25.90;15.30;;;;;;;11.90;52.42;102827.34;4832925;29;98058;-70
2022/03/27 05:52:35;;;;;;;22.00;13.52;;;;;;;11.68;52.65;102827.50;4830476;29;99051;-70
2022/03/27 05:55:02;;;;;;;22.80;14.82;;;;;;;11.98;52.66;102833.47;4831974;29;97476;-70
2022/03/27 05:57:30;;;;;;;21.92;14.15;;;;;;;12.03;52.04;102833.41;4832238;29;96918;-71
2022/03/27 05:59:57;;;;;;;24.67;14.93;;;;;;;12.10;51.88;102840.44;4833304;29;96906;-71
2022/03/27 06:02:23;;;;;;;25.20;14.77;;;;;;;12.48;51.08;102845.34;4832621;29;97793;-70
2022/03/27 06:04:49;;;;;;;23.85;15.13;;;;;;;12.49;50.86;102849.78;4834438;29;98927;-69
2022/03/27 06:07:16;;;;;;;29.70;15.43;;;;;;;12.62;50.39;102853.19;4829418;29;97321;-70
2022/03/27 06:09:42;;;;;;;22.48;15.13;;;;;;;12.46;51.33;102859.53;4832685;29;96987;-70
2022/03/27 06:12:10;;;;;;;25.40;15.85;;;;;;;12.57;51.23;102855.00;4831373;29;96913;-70
2022/03/27 06:14:37;;;;;;;25.38;15.48;;;;;;;12.70;50.32;102851.31;4830576;29;98886;-69
2022/03/27 06:17:04;;;;;;;28.58;17.10;;;;;;;12.53;51.68;102858.59;4833274;29;96731;-70
2022/03/27 06:19:31;;;;;;;25.55;16.60;;;;;;;12.51;52.42;102861.25;4829806;29;97107;-70
2022/03/27 06:21:58;;;;;;;24.92;17.33;;;;;;;12.48;52.68;102863.03;4832245;29;99003;-70
2022/03/27 06:24:25;;;;;;;26.83;17.52;;;;;;;12.54;52.24;102866.50;4827225;29;99085;-70
2022/03/27 06:26:52;;;;;;;24.85;17.38;;;;;;;12.70;52.17;102864.59;4827450;29;96822;-70
2022/03/27 06:29:20;;;;;;;25.88;17.80;;;;;;;13.05;51.40;102873.03;4830234;29;96945;-71
2022/03/27 06:31:49;;;;;;;28.88;18.88;;;;;;;13.07;51.87;102867.69;4831459;29;99257;-70
2022/03/27 06:34:15;;;;;;;27.65;18.17;;;;;;;12.84;52.44;102867.09;4828475;29;99231;-71
2022/03/27 06:36:42;;;;;;;27.02;18.60;;;;;;;13.09;51.99;102866.78;4828340;29;96819;-71
2022/03/27 06:39:09;;;;;;;28.02;18.10;;;;;;;12.86;52.96;102868.84;4828600;29;96982;-71
2022/03/27 06:41:37;;;;;;;27.08;17.60;;;;;;;13.16;52.31;102867.63;4830279;29;102265;-70
2022/03/27 06:44:04;;;;;;;27.92;18.30;;;;;;;13.34;51.38;102862.06;4833392;29;98949;-70
2022/03/27 06:46:31;;;;;;;26.45;18.05;;;;;;;13.05;52.21;102869.50;4830776;29;97814;-70
2022/03/27 06:48:58;;;;;;;27.85;18.17;;;;;;;13.25;51.71;102874.59;4832728;29;96997;-70
2022/03/27 06:51:25;;;;;;;25.98;17.55;;;;;;;13.33;51.73;102878.88;4831576;29;98309;-69
2022/03/27 06:53:51;;;;;;;29.67;18.25;;;;;;;13.53;51.09;102878.63;4831166;29;97695;-70
2022/03/27 06:56:17;;;;;;;27.80;18.08;;;;;;;13.87;50.48;102874.56;4832100;29;96972;-71
2022/03/27 06:58:44;;;;;;;24.90;17.83;;;;;;;14.07;50.01;102870.72;4828120;29;97734;-70
2022/03/27 07:03:54;;;;;;;26.30;17.33;;;;;;;13.87;50.04;102871.91;4834202;29;99085;-71
2022/03/27 07:06:23;;;;;;;26.77;17.77;;;;;;;14.00;50.14;102872.59;4834438;29;97268;-69
2022/03/27 07:08:49;;;;;;;33.58;19.17;;;;;;;13.82;50.46;102875.53;4836872;29;97675;-70
2022/03/27 07:11:16;;;;;;;24.33;16.70;;;;;;;13.94;50.17;102870.91;4832145;29;101284;-69
2022/03/27 07:13:42;;;;;;;24.35;16.70;;;;;;;14.46;49.22;102874.50;4833663;29;101014;-69
2022/03/27 07:16:10;;;;;;;26.85;17.33;;;;;;;14.44;49.08;102871.84;4831377;29;97289;-70
2022/03/27 07:18:37;;;;;;;22.88;16.05;;;;;;;14.40;49.27;102875.50;4834478;29;96988;-69
2022/03/27 07:21:03;;;;;;;24.98;16.17;;;;;;;14.44;49.16;102874.50;4830432;29;98992;-71
2022/03/27 07:23:31;;;;;;;24.35;16.52;;;;;;;14.67;48.90;102874.09;4833818;29;101085;-70
2022/03/27 07:25:57;;;;;;;25.15;16.45;;;;;;;14.59;48.84;102871.59;4830784;29;97175;-71
2022/03/27 07:28:24;;;;;;;23.33;17.50;;;;;;;14.72;48.61;102869.56;4832008;29;97886;-70
2022/03/27 07:30:51;;;;;;;24.50;16.77;;;;;;;14.78;48.30;102866.78;4832558;29;99454;-71
2022/03/27 07:33:19;;;;;;;38.45;25.88;;;;;;;15.02;47.88;102865.44;4835402;29;97553;-70
2022/03/27 07:35:45;;;;;;;22.58;14.90;;;;;;;15.00;48.15;102867.25;4833204;29;97451;-71
2022/03/27 07:38:12;;;;;;;24.50;15.82;;;;;;;15.15;47.86;102861.63;4834106;29;96944;-69
2022/03/27 07:40:40;;;;;;;20.13;15.40;;;;;;;15.51;46.67;102863.47;4832985;29;99254;-74
2022/03/27 07:43:07;;;;;;;29.08;15.02;;;;;;;15.57;47.09;102859.81;4836850;29;98829;-70
2022/03/27 07:45:35;;;;;;;19.10;13.85;;;;;;;15.70;46.47;102860.41;4833048;29;96959;-71
2022/03/27 07:48:02;;;;;;;20.42;15.55;;;;;;;15.49;46.95;102861.75;4833948;29;97313;-71
2022/03/27 07:50:30;;;;;;;18.38;13.85;;;;;;;15.57;47.28;102859.81;4830314;29;99495;-70
2022/03/27 07:52:57;;;;;;;20.30;13.52;;;;;;;15.56;46.99;102859.88;4833558;29;100766;-70
2022/03/27 07:55:24;;;;;;;22.23;13.35;;;;;;;15.50;47.35;102872.34;4832667;29;96808;-71
2022/03/27 07:57:52;;;;;;;18.88;13.20;;;;;;;15.60;46.93;102866.88;4832485;29;99042;-70
2022/03/27 08:00:19;;;;;;;19.13;12.80;;;;;;;16.01;45.92;102864.09;4829170;29;101337;-69
2022/03/27 08:02:46;;;;;;;19.42;12.95;;;;;;;15.88;46.40;102866.16;4830833;29;99246;-71
2022/03/27 08:05:13;;;;;;;17.33;13.13;;;;;;;16.06;45.68;102864.84;4834091;29;97653;-70
2022/03/27 08:07:40;;;;;;;16.13;12.13;;;;;;;16.08;45.92;102865.69;4831864;29;97953;-69
2022/03/27 08:10:08;;;;;;;18.83;13.50;;;;;;;16.20;45.36;102854.72;4830417;29;101505;-70
2022/03/27 08:12:37;;;;;;;20.23;12.45;;;;;;;16.20;45.38;102860.06;4833318;29;99214;-70
2022/03/27 08:15:07;;;;;;;18.17;13.25;;;;;;;16.52;44.56;102861.00;4832017;29;97077;-71
2022/03/27 08:17:34;;;;;;;19.27;12.60;;;;;;;16.57;44.79;102864.41;4826747;29;96953;-70
2022/03/27 08:20:00;;;;;;;19.00;12.65;;;;;;;16.57;44.62;102859.06;4829681;29;99147;-70
2022/03/27 08:22:27;;;;;;;18.23;12.20;;;;;;;16.55;44.68;102860.91;4827474;29;98814;-69
2022/03/27 08:24:54;;;;;;;16.10;13.73;;;;;;;16.19;45.04;102857.44;4825777;29;97188;-71
2022/03/27 08:27:20;;;;;;;15.93;13.30;;;;;;;16.22;45.47;102850.22;4828199;29;97007;-71
2022/03/27 08:29:47;;;;;;;16.30;12.68;;;;;;;16.29;45.12;102843.78;4821918;29;101207;-69
2022/03/27 08:32:17;;;;;;;19.73;12.93;;;;;;;16.49;44.99;102848.59;4827844;29;98831;-70
2022/03/27 08:34:46;;;;;;;16.17;12.95;;;;;;;16.34;45.02;102849.03;4819187;29;97292;-69
2022/03/27 08:37:15;;;;;;;21.25;12.63;;;;;;;16.12;45.45;102850.50;4821551;29;98216;-70
2022/03/27 08:39:44;;;;;;;17.20;11.70;;;;;;;16.65;44.46;102854.44;4828042;29;98833;-70
2022/03/27 08:42:11;;;;;;;18.10;12.23;;;;;;;16.87;43.95;102838.72;4827903;29;99955;-69
2022/03/27 08:44:37;;;;;;;19.00;12.77;;;;;;;16.60;44.66;102843.03;4826212;29;97520;-70
2022/03/27 08:47:11;;;;;;;17.23;12.25;;;;;;;16.86;43.57;102834.28;4823710;29;97548;-70
2022/03/27 08:49:47;;;;;;;18.33;13.07;;;;;;;16.50;44.73;102833.47;4824688;29;98961;-69
2022/03/27 08:52:34;;;;;;;17.45;13.05;;;;;;;15.73;45.85;102836.34;4825213;29;99480;-70
2022/03/27 08:55:06;;;;;;;17.30;13.88;;;;;;;17.02;43.72;102843.59;4822745;29;96915;-70
2022/03/27 08:57:50;;;;;;;18.83;12.88;;;;;;;17.41;42.99;102837.03;4824346;29;97443;-70
2022/03/27 09:00:20;;;;;;;21.48;13.68;;;;;;;17.57;42.32;102837.44;4825231;29;101445;-69
2022/03/27 09:02:47;;;;;;;21.90;14.00;;;;;;;17.82;41.98;102837.56;4825802;29;98079;-72
2022/03/27 09:05:16;;;;;;;20.73;13.93;;;;;;;17.34;42.61;102840.81;4824876;29;97746;-71
2022/03/27 09:07:42;;;;;;;16.83;13.15;;;;;;;16.41;44.78;102849.75;4829231;29;96987;-71
2022/03/27 09:10:10;;;;;;;17.33;12.57;;;;;;;16.47;44.21;102838.91;4831035;29;98991;-72
2022/03/27 09:12:37;;;;;;;24.98;17.10;;;;;;;16.77;43.52;102848.75;4822246;29;97975;-72
2022/03/27 09:15:07;;;;;;;18.27;12.90;;;;;;;17.19;42.57;102843.97;4827922;29;97350;-75
2022/03/27 09:17:59;;;;;;;16.90;11.95;;;;;;;17.65;41.41;102832.78;4824114;29;97653;-74
2022/03/27 09:20:36;;;;;;;16.67;12.80;;;;;;;17.31;41.96;102845.41;4828649;29;101006;-71
2022/03/27 09:23:35;;;;;;;16.42;13.27;;;;;;;16.78;42.83;102844.31;4825727;29;99080;-72
2022/03/27 09:26:04;;;;;;;17.73;13.57;;;;;;;17.33;41.94;102843.53;4826354;29;97301;-72
2022/03/27 09:28:33;;;;;;;17.83;13.20;;;;;;;18.04;40.39;102837.75;4827549;29;96927;-70
2022/03/27 09:31:02;;;;;;;17.25;13.18;;;;;;;18.04;40.20;102821.69;4827148;29;101735;-72
2022/03/27 09:33:46;;;;;;;14.90;12.27;;;;;;;18.08;39.29;102836.69;4831273;29;98954;-69
2022/03/27 09:36:17;;;;;;;16.98;12.63;;;;;;;18.06;39.08;102831.38;4827680;29;97386;-72
2022/03/27 09:39:05;;;;;;;17.70;12.98;;;;;;;17.79;39.02;102837.66;4827343;29;97607;-72
2022/03/27 09:41:40;;;;;;;15.50;11.93;;;;;;;17.69;39.65;102829.06;4826411;29;98700;-74
2022/03/27 09:44:08;;;;;;;18.80;11.43;;;;;;;17.91;39.03;102821.22;4829105;29;97824;-72
2022/03/27 09:46:49;;;;;;;14.45;11.35;;;;;;;18.22;38.66;102831.75;4828800;29;97313;-72
2022/03/27 09:49:16;;;;;;;19.63;14.63;;;;;;;18.56;38.26;102824.31;4823455;29;97139;-72
2022/03/27 09:52:28;;;;;;;17.85;13.88;;;;;;;18.54;38.43;102828.81;4829136;29;99455;-71
2022/03/27 09:54:56;;;;;;;17.65;13.02;;;;;;;18.70;37.98;102814.00;4825430;29;102645;-72
2022/03/27 09:57:25;;;;;;;14.90;11.48;;;;;;;18.27;38.83;102813.72;4828594;29;97558;-73
2022/03/27 09:59:53;;;;;;;15.80;9.98;;;;;;;18.36;37.94;102813.41;4829901;29;97070;-71
2022/03/27 10:02:21;;;;;;;13.38;9.10;;;;;;;17.78;38.33;102811.88;4828045;29;99033;-72
2022/03/27 10:05:03;;;;;;;17.00;9.90;;;;;;;17.67;38.39;102806.84;4828895;29;97681;-71
2022/03/27 10:07:39;;;;;;;12.90;9.13;;;;;;;17.37;38.85;102805.13;4826968;29;97144;-70
2022/03/27 10:10:07;;;;;;;8.63;6.88;;;;;;;17.16;38.95;102809.34;4825045;29;96934;-71
2022/03/27 10:12:37;;;;;;;9.80;6.72;;;;;;;18.06;37.42;102801.09;4827163;29;99920;-69
2022/03/27 10:15:06;;;;;;;13.00;6.65;;;;;;;18.21;37.02;102797.88;4831688;29;97591;-70
2022/03/27 10:17:34;;;;;;;9.48;7.15;;;;;;;17.74;37.07;102797.69;4821849;29;98864;-70
2022/03/27 10:20:07;;;;;;;8.90;6.93;;;;;;;18.00;36.86;102791.47;4827016;29;97110;-69
2022/03/27 10:22:38;;;;;;;12.70;7.10;;;;;;;17.85;36.80;102784.00;4828403;29;99134;-70
2022/03/27 10:25:09;;;;;;;10.98;7.15;;;;;;;17.83;37.50;102786.72;4824531;29;98943;-70
2022/03/27 10:27:37;;;;;;;10.63;6.47;;;;;;;17.93;36.32;102781.91;4825975;29;97895;-69
2022/03/27 10:30:05;;;;;;;7.78;5.75;;;;;;;18.56;35.07;102783.28;4818916;29;98337;-70
2022/03/27 10:32:34;;;;;;;9.43;6.38;;;;;;;18.87;34.65;102777.66;4824883;29;99915;-70
2022/03/27 10:35:14;;;;;;;10.82;6.50;;;;;;;19.01;34.84;102772.63;4828836;29;99261;-71
2022/03/27 10:37:48;;;;;;;9.82;6.13;;;;;;;18.80;34.40;102773.47;4829072;29;99401;-72
2022/03/27 10:40:22;;;;;;;9.85;6.68;;;;;;;18.42;35.27;102777.53;4820275;29;97560;-71
2022/03/27 10:42:57;;;;;;;12.48;9.32;;;;;;;18.76;34.96;102770.03;4812947;29;99512;-71
2022/03/27 10:45:24;;;;;;;10.23;7.32;;;;;;;17.21;37.52;102766.44;4822580;29;99023;-71
2022/03/27 10:48:10;;;;;;;10.25;7.80;;;;;;;17.50;37.59;102761.06;4832323;29;97339;-72
2022/03/27 10:50:46;;;;;;;8.48;7.30;;;;;;;18.17;36.38;102761.47;4827332;29;98696;-72
2022/03/27 10:53:13;;;;;;;11.80;7.93;;;;;;;18.11;36.01;102759.91;4828595;29;99347;-72
2022/03/27 10:55:43;;;;;;;10.45;7.22;;;;;;;18.50;35.43;102759.38;4831887;29;101084;-69
2022/03/27 10:58:31;;;;;;;10.35;6.82;;;;;;;17.87;35.60;102756.25;4831567;29;97076;-70
2022/03/27 11:00:59;;;;;;;13.48;6.30;;;;;;;17.41;36.19;102756.00;4828798;29;97700;-70
2022/03/27 11:03:49;;;;;;;7.70;6.05;;;;;;;17.83;35.12;102759.09;4826749;29;99008;-73
2022/03/27 11:06:26;;;;;;;7.88;5.80;;;;;;;17.86;35.41;102743.81;4830171;29;97562;-71
2022/03/27 11:08:54;;;;;;;7.22;5.55;;;;;;;17.43;35.90;102743.47;4831788;29;96944;-74
2022/03/27 11:12:00;;;;;;;9.43;6.75;;;;;;;17.33;35.99;102739.31;4829126;29;97186;-72
2022/03/27 11:15:02;;;;;;;9.75;6.85;;;;;;;17.21;36.96;102727.25;4834221;29;98822;-71
2022/03/27 11:17:49;;;;;;;8.45;6.30;;;;;;;16.70;38.14;102716.38;4831387;29;99736;-71
2022/03/27 11:20:35;;;;;;;;;;;;;;;17.86;36.01;102724.19;4831008;29;96791;-72
2022/03/27 11:23:22;;;;;;;11.15;6.53;;;;;;;18.19;35.67;102715.00;4837396;29;96807;-72
2022/03/27 11:25:49;;;;;;;8.82;6.65;;;;;;;18.56;35.04;102719.91;4832193;29;99594;-71